Time;durP1;ratioP1;P1;durP2;ratioP2;P2;SDS_P1;SDS_P2;PMS_P1;PMS_P2;Temp;Humidity;BMP_temperature;BMP_pressure;BME280_temperature;BME280_humidity;BME280_pressure;Samples;Min_cycle;Max_cycle;Signal;HPM_P1;HPM_P2
2024/04/15 00:01:26;;;;;;;;;;;;;;;11.82;100.00;98231.91;5322456;26;19930;-89
2024/04/15 00:03:51;;;;;;;;;;;;;;;11.89;100.00;98248.97;5272613;26;20056;-90
2024/04/15 00:06:17;;;;;;;;;;;;;;;12.01;100.00;98301.72;5324829;26;19939;-89
2024/04/15 00:08:45;;;;;;;;;;;;;;;12.08;100.00;98311.66;5295401;26;20651;-89
2024/04/15 00:11:10;;;;;;;;;;;;;;;12.07;100.00;98230.53;5328463;26;20431;-90
2024/04/15 00:13:36;;;;;;;;;;;;;;;12.06;99.80;98244.75;5324271;26;19937;-90
2024/04/15 00:16:01;;;;;;;;;;;;;;;12.05;100.00;98252.75;5355708;26;19938;-90
2024/04/15 00:18:27;;;;;;;;;;;;;;;12.05;100.00;98250.97;5348488;26;20054;-89
2024/04/15 00:20:56;;;;;;;;;;;;;;;12.04;100.00;98242.94;5294863;26;19938;-90
2024/04/15 00:23:21;;;;;;;;;;;;;;;12.08;100.00;98234.09;5300766;26;19937;-89
2024/04/15 00:25:46;;;;;;;;;;;;;;;12.03;100.00;98244.72;5322695;26;19946;-89
2024/04/15 00:28:12;;;;;;;;;;;;;;;12.03;100.00;98247.41;5358477;26;19938;-87
2024/04/15 00:30:37;;;;;;;;;;;;;;;12.12;100.00;98257.34;5326739;26;19937;-89
2024/04/15 00:33:02;;;;;;;;;;;;;;;12.14;100.00;98254.69;5292915;26;19938;-89
2024/04/15 00:35:28;;;;;;;;;;;;;;;12.06;100.00;98249.22;5326695;26;19930;-89
2024/04/15 00:37:54;;;;;;;;;;;;;;;12.05;100.00;98279.50;5352633;26;19934;-89
2024/04/15 00:40:19;;;;;;;;;;;;;;;12.18;100.00;98275.25;5354609;26;20341;-89
2024/04/15 00:42:44;;;;;;;;;;;;;;;12.09;100.00;98284.03;5268054;26;20355;-89
2024/04/15 00:45:30;;;;;;;;;;;;;;;12.12;100.00;98277.81;5327252;26;19942;-86
2024/04/15 00:47:57;;;;;;;;;;;;;;;12.19;100.00;98264.56;5290473;26;20280;-86
2024/04/15 00:50:23;;;;;;;;;;;;;;;12.15;100.00;98260.03;5325487;26;19946;-86
2024/04/15 00:52:48;;;;;;;;;;;;;;;12.07;100.00;98267.97;5362509;26;19930;-86
2024/04/15 00:55:14;;;;;;;;;;;;;;;12.06;100.00;98252.78;5328744;26;19930;-89
2024/04/15 00:57:43;;;;;;;;;;;;;;;12.07;100.00;98243.91;5344355;26;19938;-88
2024/04/15 01:00:09;;;;;;;;;;;;;;;12.12;100.00;98227.00;5327215;26;19931;-88
2024/04/15 01:02:35;;;;;;;;;;;;;;;12.18;100.00;98229.78;5292988;26;19938;-88
2024/04/15 01:05:00;;;;;;;;;;;;;;;12.22;100.00;98211.13;5300108;26;20038;-88
2024/04/15 01:07:26;;;;;;;;;;;;;;;12.35;100.00;98205.94;5279824;26;20065;-86
2024/04/15 01:09:51;;;;;;;;;;;;;;;12.29;100.00;98210.34;5322083;26;19931;-87
2024/04/15 01:12:17;;;;;;;;;;;;;;;12.25;100.00;98203.13;5289848;26;19984;-86
2024/04/15 01:14:42;;;;;;;;;;;;;;;12.23;100.00;98198.66;5321393;26;19938;-87
2024/04/15 01:17:07;;;;;;;;;;;;;;;12.31;100.00;98205.91;5297733;26;19941;-87
2024/04/15 01:19:32;;;;;;;;;;;;;;;12.31;100.00;98208.59;5330451;26;19942;-87
2024/04/15 01:21:58;;;;;;;;;;;;;;;12.39;100.00;98208.69;5330203;26;19954;-87
2024/04/15 01:24:23;;;;;;;;;;;;;;;12.33;100.00;98219.31;5333995;26;19937;-87
2024/04/15 01:26:49;;;;;;;;;;;;;;;12.20;100.00;98225.34;5348780;26;19990;-87
2024/04/15 01:29:14;;;;;;;;;;;;;;;12.20;100.00;98211.97;5323615;26;19934;-86
2024/04/15 01:31:39;;;;;;;;;;;;;;;12.22;100.00;98207.56;5296349;26;19930;-87
2024/04/15 01:34:05;;;;;;;;;;;;;;;12.09;100.00;98208.25;5327801;26;19931;-87
2024/04/15 01:36:30;;;;;;;;;;;;;;;11.98;100.00;98214.34;5319344;26;19931;-88
2024/04/15 01:38:55;;;;;;;;;;;;;;;11.91;100.00;98199.06;5322741;26;19931;-87
2024/04/15 01:41:20;;;;;;;;;;;;;;;12.00;100.00;98206.34;5323163;26;20311;-88
2024/04/15 01:43:46;;;;;;;;;;;;;;;11.95;100.00;98200.94;5330976;26;20272;-87
2024/04/15 01:46:11;;;;;;;;;;;;;;;11.95;100.00;98202.69;5320699;26;19930;-87
2024/04/15 01:48:36;;;;;;;;;;;;;;;11.89;100.00;98190.16;5326814;26;20771;-87
2024/04/15 01:51:02;;;;;;;;;;;;;;;11.88;100.00;98180.34;5329405;26;20288;-87
2024/04/15 01:53:27;;;;;;;;;;;;;;;11.96;100.00;98178.66;5325248;26;20830;-87
2024/04/15 01:55:52;;;;;;;;;;;;;;;11.83;100.00;98168.66;5302375;26;19930;-87
2024/04/15 01:58:18;;;;;;;;;;;;;;;11.89;100.00;98168.75;5336241;26;19930;-87
2024/04/15 02:00:43;;;;;;;;;;;;;;;11.82;100.00;98165.09;5357155;26;20274;-88
2024/04/15 02:03:08;;;;;;;;;;;;;;;11.74;100.00;98163.16;5349722;26;20225;-88
2024/04/15 02:05:34;;;;;;;;;;;;;;;11.77;100.00;98164.09;5332213;26;19942;-87
2024/04/15 02:07:59;;;;;;;;;;;;;;;11.83;100.00;98157.97;5326881;26;19941;-87
2024/04/15 02:10:25;;;;;;;;;;;;;;;11.78;100.00;98160.53;5325616;26;19938;-87
2024/04/15 02:12:50;;;;;;;;;;;;;;;11.84;100.00;98158.88;5332836;26;19930;-87
2024/04/15 02:15:16;;;;;;;;;;;;;;;11.92;100.00;98155.41;5328283;26;20329;-87
2024/04/15 02:17:41;;;;;;;;;;;;;;;11.95;100.00;98159.94;5304141;26;20778;-87
2024/04/15 02:20:07;;;;;;;;;;;;;;;12.01;100.00;98166.25;5334453;26;19937;-86
2024/04/15 02:22:32;;;;;;;;;;;;;;;12.07;100.00;98170.78;5332790;26;19936;-87
2024/04/15 02:24:58;;;;;;;;;;;;;;;12.10;100.00;98172.63;5298874;26;19937;-86
2024/04/15 02:27:23;;;;;;;;;;;;;;;12.12;100.00;98173.53;5361085;26;19953;-87
2024/04/15 02:29:48;;;;;;;;;;;;;;;12.11;100.00;98179.75;5328462;26;20330;-88
2024/04/15 02:32:14;;;;;;;;;;;;;;;12.07;100.00;98179.72;5300218;26;19930;-87
2024/04/15 02:34:41;;;;;;;;;;;;;;;12.03;100.00;98171.66;5307114;26;19930;-87
2024/04/15 02:37:06;;;;;;;;;;;;;;;11.97;100.00;98160.84;5305882;26;19941;-87
2024/04/15 02:39:32;;;;;;;;;;;;;;;11.91;100.00;98155.41;5303895;26;20526;-87
2024/04/15 02:41:57;;;;;;;;;;;;;;;11.92;100.00;98160.75;5357303;26;20834;-88
2024/04/15 02:44:22;;;;;;;;;;;;;;;11.92;100.00;98152.75;5298888;26;19934;-87
2024/04/15 02:46:48;;;;;;;;;;;;;;;11.97;100.00;98139.44;5310788;26;19934;-88
2024/04/15 02:49:13;;;;;;;;;;;;;;;11.90;100.00;98138.47;5332132;26;19942;-87
2024/04/15 02:51:38;;;;;;;;;;;;;;;11.92;100.00;98144.72;5355100;26;19930;-87
2024/04/15 02:54:04;;;;;;;;;;;;;;;11.89;100.00;98144.72;5331577;26;20302;-88
2024/04/15 02:56:29;;;;;;;;;;;;;;;11.80;100.00;98142.75;5353243;26;19999;-87
2024/04/15 02:58:54;;;;;;;;;;;;;;;11.84;100.00;98138.41;5324118;26;19931;-87
2024/04/15 03:01:20;;;;;;;;;;;;;;;11.85;100.00;98132.16;5314411;26;20025;-87
2024/04/15 03:03:45;;;;;;;;;;;;;;;11.73;100.00;98134.59;5323192;26;20755;-87
2024/04/15 03:06:11;;;;;;;;;;;;;;;11.63;100.00;98117.53;5324610;26;20000;-87
2024/04/15 03:08:36;;;;;;;;;;;;;;;11.64;100.00;98123.78;5353481;26;20387;-87
2024/04/15 03:11:10;;;;;;;;;;;;;;;11.50;100.00;98131.63;5316077;26;19943;-87
2024/04/15 03:13:36;;;;;;;;;;;;;;;11.45;100.00;98144.91;5323403;26;19930;-87
2024/04/15 03:16:01;;;;;;;;;;;;;;;11.62;100.00;98149.59;5345997;26;19930;-87
2024/04/15 03:18:26;;;;;;;;;;;;;;;11.53;100.00;98132.53;5322322;26;20733;-86
2024/04/15 03:20:51;;;;;;;;;;;;;;;11.56;100.00;98126.34;5346267;26;21060;-87
2024/04/15 03:23:17;;;;;;;;;;;;;;;11.62;100.00;98109.50;5350693;26;20255;-87
2024/04/15 03:25:42;;;;;;;;;;;;;;;11.65;100.00;98137.19;5332713;26;20310;-86
2024/04/15 03:28:08;;;;;;;;;;;;;;;11.56;100.00;98137.94;5323532;26;20360;-87
2024/04/15 03:30:34;;;;;;;;;;;;;;;11.67;100.00;98130.06;5325828;26;19938;-88
2024/04/15 03:33:00;;;;;;;;;;;;;;;11.61;100.00;98130.00;5329169;26;19942;-88
2024/04/15 03:35:25;;;;;;;;;;;;;;;11.61;100.00;98134.44;5325308;26;20401;-88
2024/04/15 03:37:50;;;;;;;;;;;;;;;11.61;100.00;98127.31;5298326;26;19941;-88
2024/04/15 03:40:16;;;;;;;;;;;;;;;11.49;100.00;98109.31;5299224;26;20369;-88
2024/04/15 03:42:41;;;;;;;;;;;;;;;11.49;100.00;98119.09;5327713;26;20485;-88
2024/04/15 03:45:06;;;;;;;;;;;;;;;11.36;100.00;98130.50;5358526;26;19942;-87
2024/04/15 03:47:32;;;;;;;;;;;;;;;11.36;100.00;98120.72;5321601;26;19937;-88
2024/04/15 03:49:57;;;;;;;;;;;;;;;11.41;100.00;98120.78;5325128;26;20803;-88
2024/04/15 03:52:22;;;;;;;;;;;;;;;11.49;100.00;98111.97;5319757;26;20341;-87
2024/04/15 03:54:48;;;;;;;;;;;;;;;11.42;100.00;98106.53;5296186;26;20387;-88
2024/04/15 03:57:13;;;;;;;;;;;;;;;11.40;100.00;98114.53;5330342;26;20029;-87
2024/04/15 03:59:38;;;;;;;;;;;;;;;11.35;100.00;98110.88;5323640;26;19934;-87
2024/04/15 04:02:05;;;;;;;;;;;;;;;11.35;100.00;98108.19;5324635;26;20000;-86
2024/04/15 04:04:31;;;;;;;;;;;;;;;11.35;100.00;98076.16;5319703;26;19930;-86
2024/04/15 04:07:02;;;;;;;;;;;;;;;11.31;100.00;98077.00;5293614;26;19945;-87
2024/04/15 04:09:28;;;;;;;;;;;;;;;11.30;100.00;98094.78;5353270;26;19930;-87
2024/04/15 04:11:54;;;;;;;;;;;;;;;11.24;100.00;98101.78;5291099;26;19990;-87
2024/04/15 04:14:19;;;;;;;;;;;;;;;11.27;100.00;98102.75;5317185;26;19990;-87
2024/04/15 04:16:44;;;;;;;;;;;;;;;11.32;100.00;98116.19;5321329;26;20358;-87
2024/04/15 04:19:10;;;;;;;;;;;;;;;11.33;100.00;98109.97;5354610;26;19938;-87
2024/04/15 04:21:35;;;;;;;;;;;;;;;11.38;100.00;98104.69;5291337;26;20403;-88
2024/04/15 04:24:00;;;;;;;;;;;;;;;11.35;100.00;98093.94;5325536;26;20016;-87
2024/04/15 04:26:26;;;;;;;;;;;;;;;11.33;100.00;98101.94;5352751;26;19942;-88
2024/04/15 04:28:52;;;;;;;;;;;;;;;11.27;100.00;98099.19;5325855;26;20281;-88
2024/04/15 04:31:18;;;;;;;;;;;;;;;11.32;100.00;98118.84;5300258;26;19930;-89
2024/04/15 04:33:43;;;;;;;;;;;;;;;11.44;100.00;98132.38;5334531;26;19930;-88
2024/04/15 04:36:08;;;;;;;;;;;;;;;11.46;100.00;98117.31;5364129;26;19931;-88
2024/04/15 04:38:34;;;;;;;;;;;;;;;11.39;100.00;98110.06;5339088;26;19937;-88
2024/04/15 04:41:00;;;;;;;;;;;;;;;11.34;100.00;98101.06;5331872;26;19930;-89
2024/04/15 04:43:25;;;;;;;;;;;;;;;11.32;100.00;98105.50;5295776;26;19937;-88
2024/04/15 04:45:51;;;;;;;;;;;;;;;11.26;100.00;98113.41;5356075;26;19930;-88
2024/04/15 04:48:17;;;;;;;;;;;;;;;11.26;100.00;98122.31;5357751;26;19937;-87
2024/04/15 04:50:42;;;;;;;;;;;;;;;11.28;100.00;98133.91;5334433;26;19938;-88
2024/04/15 04:53:07;;;;;;;;;;;;;;;11.18;100.00;98129.31;5350312;26;20174;-89
2024/04/15 04:55:36;;;;;;;;;;;;;;;11.20;100.00;98131.97;5322170;26;19937;-89
2024/04/15 04:58:05;;;;;;;;;;;;;;;11.20;100.00;98116.88;5292353;26;20008;-89
2024/04/15 05:00:31;;;;;;;;;;;;;;;11.34;100.00;98125.09;5301998;26;19945;-89
2024/04/15 05:02:56;;;;;;;;;;;;;;;11.33;100.00;98142.00;5344235;26;19935;-90
2024/04/15 05:05:21;;;;;;;;;;;;;;;11.29;100.00;98134.81;5332475;26;20330;-90
2024/04/15 05:07:47;;;;;;;;;;;;;;;11.32;100.00;98131.31;5318251;26;19929;-90
2024/04/15 05:10:13;;;;;;;;;;;;;;;11.37;100.00;98119.81;5299147;26;19938;-89
2024/04/15 05:12:38;;;;;;;;;;;;;;;11.42;100.00;98136.81;5330604;26;19930;-89
2024/04/15 05:15:03;;;;;;;;;;;;;;;11.29;100.00;98156.19;5358000;26;19931;-89
2024/04/15 05:17:29;;;;;;;;;;;;;;;11.26;100.00;98158.81;5294315;26;19949;-89
2024/04/15 05:19:54;;;;;;;;;;;;;;;11.26;100.00;98148.13;5319541;26;19930;-90
2024/04/15 05:22:19;;;;;;;;;;;;;;;11.23;100.00;98142.72;5357964;26;19942;-89
2024/04/15 05:24:45;;;;;;;;;;;;;;;11.33;100.00;98143.78;5324186;26;19930;-90
2024/04/15 05:27:10;;;;;;;;;;;;;;;11.40;100.00;98134.97;5307538;26;20714;-89
2024/04/15 05:29:36;;;;;;;;;;;;;;;11.51;100.00;98134.31;5338715;26;19992;-88
2024/04/15 05:32:01;;;;;;;;;;;;;;;11.57;100.00;98128.16;5308234;26;19974;-88
2024/04/15 05:34:26;;;;;;;;;;;;;;;11.47;100.00;98137.78;5304854;26;19934;-89
2024/04/15 05:36:51;;;;;;;;;;;;;;;11.32;100.00;98150.91;5303886;26;19931;-88
2024/04/15 05:39:17;;;;;;;;;;;;;;;11.39;100.00;98155.44;5365005;26;20000;-88
2024/04/15 05:41:42;;;;;;;;;;;;;;;11.34;100.00;98151.81;5357091;26;19938;-88
2024/04/15 05:44:07;;;;;;;;;;;;;;;11.41;100.00;98151.06;5300747;26;20263;-89
2024/04/15 05:46:36;;;;;;;;;;;;;;;11.55;100.00;98153.97;5325582;26;19930;-86
2024/04/15 05:49:01;;;;;;;;;;;;;;;11.48;100.00;98152.94;5304203;26;19938;-88
2024/04/15 05:51:27;;;;;;;;;;;;;;;11.39;100.00;98165.25;5322528;26;19951;-89
2024/04/15 05:53:53;;;;;;;;;;;;;;;11.38;100.00;98158.09;5322150;26;20037;-89
2024/04/15 05:56:19;;;;;;;;;;;;;;;11.40;100.00;98151.94;5293247;26;19930;-90
2024/04/15 05:58:44;;;;;;;;;;;;;;;11.47;100.00;98163.59;5353490;26;19942;-89
2024/04/15 06:01:09;;;;;;;;;;;;;;;11.49;100.00;98156.50;5357368;26;19981;-90
2024/04/15 06:03:35;;;;;;;;;;;;;;;11.46;100.00;98153.81;5330322;26;19942;-90
2024/04/15 06:06:00;;;;;;;;;;;;;;;11.52;100.00;98165.47;5330588;26;19930;-91
2024/04/15 06:08:25;;;;;;;;;;;;;;;11.62;100.00;98163.84;5296835;26;20066;-91
2024/04/15 06:10:51;;;;;;;;;;;;;;;11.74;100.00;98171.19;5341042;26;19937;-91
2024/04/15 06:13:19;;;;;;;;;;;;;;;11.77;100.00;98164.09;5372556;26;19934;-91
2024/04/15 06:15:44;;;;;;;;;;;;;;;11.85;100.00;98166.03;5350771;26;19938;-92
2024/04/15 06:18:09;;;;;;;;;;;;;;;11.83;100.00;98152.63;5332412;26;19931;-91
2024/04/15 06:20:35;;;;;;;;;;;;;;;11.80;97.44;98157.91;5338556;26;19931;-90
2024/04/15 06:23:00;;;;;;;;;;;;;;;11.72;94.47;98156.88;5330382;26;19934;-90
2024/04/15 06:25:26;;;;;;;;;;;;;;;11.74;95.89;98141.78;5328541;26;19940;-90
2024/04/15 06:27:51;;;;;;;;;;;;;;;11.86;95.55;98138.41;5364545;26;19941;-90
2024/04/15 06:30:17;;;;;;;;;;;;;;;12.14;92.51;98137.91;5376522;26;19931;-90
2024/04/15 06:32:43;;;;;;;;;;;;;;;12.04;90.54;98136.91;5355406;26;19930;-89
2024/04/15 06:35:08;;;;;;;;;;;;;;;11.94;92.34;98147.44;5309001;26;20000;-90
2024/04/15 06:37:34;;;;;;;;;;;;;;;11.92;91.75;98144.72;5341340;26;20351;-89
2024/04/15 06:39:59;;;;;;;;;;;;;;;11.86;93.67;98149.09;5361583;26;20000;-89
2024/04/15 06:42:24;;;;;;;;;;;;;;;11.82;93.83;98150.81;5352103;26;20272;-90
2024/04/15 06:44:50;;;;;;;;;;;;;;;11.76;92.99;98154.28;5340007;26;19980;-89
2024/04/15 06:47:15;;;;;;;;;;;;;;;11.71;93.55;98157.75;5301379;26;19937;-89
2024/04/15 06:49:41;;;;;;;;;;;;;;;11.78;93.07;98149.84;5355292;26;19982;-90
2024/04/15 06:52:06;;;;;;;;;;;;;;;11.85;93.18;98140.19;5327269;26;20256;-89
2024/04/15 06:54:32;;;;;;;;;;;;;;;11.96;90.49;98140.34;5347053;26;20121;-90
2024/04/15 06:56:58;;;;;;;;;;;;;;;11.96;89.07;98151.91;5333008;26;20944;-89
2024/04/15 06:59:23;;;;;;;;;;;;;;;11.69;90.45;98160.41;5365271;26;19937;-89
2024/04/15 07:01:48;;;;;;;;;;;;;;;11.67;91.22;98163.94;5315907;26;19937;-89
2024/04/15 07:04:14;;;;;;;;;;;;;;;11.62;90.69;98162.94;5360484;26;19930;-89
2024/04/15 07:06:39;;;;;;;;;;;;;;;11.60;90.49;98151.34;5347156;26;19930;-89
2024/04/15 07:09:05;;;;;;;;;;;;;;;11.81;88.68;98143.66;5295609;26;19936;-89
2024/04/15 07:11:32;;;;;;;;;;;;;;;11.95;87.57;98146.56;5353115;26;19941;-89
2024/04/15 07:13:58;;;;;;;;;;;;;;;12.05;86.74;98144.03;5293933;26;19983;-89
2024/04/15 07:16:23;;;;;;;;;;;;;;;12.04;87.12;98146.69;5322945;26;20462;-89
2024/04/15 07:18:48;;;;;;;;;;;;;;;12.13;85.43;98152.16;5342171;26;19937;-88
2024/04/15 07:21:14;;;;;;;;;;;;;;;12.32;84.10;98153.31;5315478;26;19937;-88
2024/04/15 07:23:39;;;;;;;;;;;;;;;12.44;84.32;98153.44;5318969;26;19940;-89
2024/04/15 07:26:04;;;;;;;;;;;;;;;12.44;83.33;98153.44;5285219;26;19941;-88
2024/04/15 07:28:30;;;;;;;;;;;;;;;12.61;83.11;98147.44;5320432;26;19947;-88
2024/04/15 07:30:59;;;;;;;;;;;;;;;12.70;83.01;98147.53;5312491;26;19938;-88
2024/04/15 07:33:25;;;;;;;;;;;;;;;12.65;84.10;98152.84;5356630;26;20322;-89
2024/04/15 07:35:54;;;;;;;;;;;;;;;12.76;82.61;98142.25;5283159;26;20360;-88
2024/04/15 07:38:19;;;;;;;;;;;;;;;12.83;82.63;98152.13;5327439;26;19931;-88
2024/04/15 07:40:45;;;;;;;;;;;;;;;12.69;82.38;98143.94;5321335;26;19937;-88
2024/04/15 07:43:10;;;;;;;;;;;;;;;12.79;81.65;98145.84;5337384;26;19930;-88
2024/04/15 07:45:35;;;;;;;;;;;;;;;12.92;82.48;98140.63;5349243;26;19933;-88
2024/04/15 07:48:01;;;;;;;;;;;;;;;13.14;80.45;98137.28;5321494;26;19953;-88
2024/04/15 07:50:26;;;;;;;;;;;;;;;13.13;80.63;98127.44;5268795;26;19930;-88
2024/04/15 07:52:52;;;;;;;;;;;;;;;13.09;80.41;98129.19;5325718;26;20856;-88
2024/04/15 07:55:17;;;;;;;;;;;;;;;12.91;81.24;98129.00;5324699;26;20259;-88
2024/04/15 07:57:59;;;;;;;;;;;;;;;12.88;81.78;98134.31;5327054;26;19946;-90
2024/04/15 08:00:25;;;;;;;;;;;;;;;12.97;81.30;98130.84;5344715;26;19938;-89
2024/04/15 08:02:50;;;;;;;;;;;;;;;12.81;81.03;98119.09;5288549;27;19931;-88
2024/04/15 08:05:16;;;;;;;;;;;;;;;12.87;81.37;98118.25;5302481;26;20354;-88
2024/04/15 08:07:42;;;;;;;;;;;;;;;12.82;81.18;98121.78;5318309;26;20601;-89
2024/04/15 08:10:07;;;;;;;;;;;;;;;12.80;81.83;98125.34;5334570;26;19942;-88
2024/04/15 08:12:32;;;;;;;;;;;;;;;12.82;82.33;98127.13;5356397;26;19949;-89
2024/04/15 08:14:58;;;;;;;;;;;;;;;12.75;82.75;98119.94;5325413;26;20817;-89
2024/04/15 08:17:25;;;;;;;;;;;;;;;12.76;83.84;98131.53;5359107;26;19937;-90
2024/04/15 08:19:52;;;;;;;;;;;;;;;12.80;83.26;98134.25;5344990;26;19982;-91
2024/04/15 08:22:17;;;;;;;;;;;;;;;12.76;83.74;98135.09;5306736;26;20751;-89
2024/04/15 08:24:47;;;;;;;;;;;;;;;12.65;83.50;98120.72;5267894;26;20009;-89
2024/04/15 08:27:13;;;;;;;;;;;;;;;12.73;84.46;98112.75;5356224;26;19942;-93
2024/04/15 08:29:38;;;;;;;;;;;;;;;12.73;85.88;98094.91;5313322;26;19930;-93
2024/04/15 08:32:03;;;;;;;;;;;;;;;12.89;85.11;98095.97;5333611;26;19949;-94
2024/04/15 08:34:29;;;;;;;;;;;;;;;12.83;85.46;98103.94;5335109;26;19930;-93
2024/04/15 08:36:54;;;;;;;;;;;;;;;12.68;83.62;98087.72;5346905;26;19930;-93
2024/04/15 08:39:19;;;;;;;;;;;;;;;12.84;82.81;98092.38;5326258;26;19941;-92
2024/04/15 08:41:50;;;;;;;;;;;;;;;13.02;83.26;98083.59;5303952;26;19938;-93
2024/04/15 08:44:17;;;;;;;;;;;;;;;12.94;82.67;98091.56;5307867;26;20417;-91
2024/04/15 08:46:47;;;;;;;;;;;;;;;12.86;83.38;98087.91;5308069;26;19930;-92
2024/04/15 08:49:13;;;;;;;;;;;;;;;12.58;83.75;98076.03;5333833;26;19999;-92
2024/04/15 08:51:39;;;;;;;;;;;;;;;12.67;84.88;98085.94;5302300;26;20023;-91
2024/04/15 08:54:05;;;;;;;;;;;;;;;12.92;83.63;98069.22;5303400;26;19938;-92
2024/04/15 08:56:33;;;;;;;;;;;;;;;12.84;84.08;98062.91;5306144;26;19938;-92
2024/04/15 08:58:59;;;;;;;;;;;;;;;12.99;84.59;98052.34;5324882;26;19938;-93
2024/04/15 09:01:26;;;;;;;;;;;;;;;13.27;84.29;98057.94;5335703;26;19930;-91
2024/04/15 09:03:51;;;;;;;;;;;;;;;13.50;81.84;98061.66;5321494;26;20004;-90
2024/04/15 09:06:16;;;;;;;;;;;;;;;13.66;80.62;98067.16;5334602;26;19930;-93
2024/04/15 09:08:43;;;;;;;;;;;;;;;13.99;80.54;98055.69;5330236;26;19931;-93
2024/04/15 09:11:09;;;;;;;;;;;;;;;13.97;77.35;98055.69;5290098;26;19934;-91
2024/04/15 09:13:34;;;;;;;;;;;;;;;13.60;80.30;98063.53;5320249;26;21019;-91
2024/04/15 09:15:59;;;;;;;;;;;;;;;13.57;80.96;98055.47;5306564;26;19941;-90
2024/04/15 09:18:25;;;;;;;;;;;;;;;14.46;76.66;98047.81;5362836;26;19958;-92
2024/04/15 09:20:52;;;;;;;;;;;;;;;14.60;75.98;98056.84;5292846;26;19934;-91
2024/04/15 09:23:17;;;;;;;;;;;;;;;14.58;75.39;98044.31;5292823;26;19950;-89
2024/04/15 09:25:43;;;;;;;;;;;;;;;14.97;72.34;98038.09;5320707;26;19994;-88
2024/04/15 09:28:08;;;;;;;;;;;;;;;15.80;69.35;98033.56;5343465;26;19931;-91
2024/04/15 09:30:34;;;;;;;;;;;;;;;15.78;69.94;98035.38;5346133;26;19933;-91
2024/04/15 09:33:00;;;;;;;;;;;;;;;15.54;66.71;98038.97;5305525;26;19938;-90
2024/04/15 09:35:28;;;;;;;;;;;;;;;15.29;70.66;98039.91;5297650;26;19931;-88
2024/04/15 09:37:54;;;;;;;;;;;;;;;15.17;70.86;98031.84;5326341;26;19937;-91
2024/04/15 09:40:23;;;;;;;;;;;;;;;15.29;69.38;98037.22;5305682;26;19930;-90
2024/04/15 09:42:50;;;;;;;;;;;;;;;15.35;70.29;98021.06;5303762;26;20474;-93
2024/04/15 09:45:16;;;;;;;;;;;;;;;14.91;69.99;98031.84;5295791;26;19931;-88
2024/04/15 09:47:45;;;;;;;;;;;;;;;14.92;71.96;98026.47;5302654;26;19930;-90
2024/04/15 09:50:11;;;;;;;;;;;;;;;14.76;72.37;98024.69;5293218;26;20000;-90
2024/04/15 09:52:39;;;;;;;;;;;;;;;14.40;74.48;98034.41;5303769;26;20292;-91
2024/04/15 09:55:08;;;;;;;;;;;;;;;14.06;72.06;98026.22;5301363;26;19942;-89
2024/04/15 09:57:36;;;;;;;;;;;;;;;14.27;72.62;98035.25;5351068;26;19930;-88
2024/04/15 10:00:01;;;;;;;;;;;;;;;14.31;73.16;98027.22;5301493;26;19937;-89
2024/04/15 10:02:27;;;;;;;;;;;;;;;14.59;72.37;98020.16;5351522;26;19934;-89
2024/04/15 10:04:53;;;;;;;;;;;;;;;14.74;71.63;98023.75;5354916;26;19936;-89
2024/04/15 10:07:20;;;;;;;;;;;;;;;14.26;71.66;98026.31;5331384;26;19930;-88
2024/04/15 10:09:48;;;;;;;;;;;;;;;14.42;71.14;98029.94;5319526;26;19930;-87
2024/04/15 10:12:15;;;;;;;;;;;;;;;14.22;72.80;98028.97;5319512;26;19941;-89
2024/04/15 10:14:41;;;;;;;;;;;;;;;14.11;72.61;98007.47;5357706;26;19937;-91
2024/04/15 10:17:08;;;;;;;;;;;;;;;14.61;71.97;98006.72;5290095;26;19942;-90
2024/04/15 10:19:34;;;;;;;;;;;;;;;14.87;70.42;97993.34;5299986;26;19930;-89
2024/04/15 10:22:01;;;;;;;;;;;;;;;15.19;70.97;97978.97;5341980;26;20356;-87
2024/04/15 10:24:26;;;;;;;;;;;;;;;15.14;69.75;97973.63;5298436;26;19930;-89
2024/04/15 10:26:52;;;;;;;;;;;;;;;15.19;70.11;97960.16;5307726;26;19942;-90
2024/04/15 10:29:19;;;;;;;;;;;;;;;16.16;66.62;97953.59;5301499;26;20021;-90
2024/04/15 10:31:54;;;;;;;;;;;;;;;16.29;65.57;97941.88;5329533;26;19938;-90
2024/04/15 10:34:21;;;;;;;;;;;;;;;16.71;63.78;97930.78;5285240;26;19931;-91
2024/04/15 10:36:48;;;;;;;;;;;;;;;17.27;62.94;97921.31;5329556;26;19930;-89
2024/04/15 10:39:14;;;;;;;;;;;;;;;16.75;62.43;97920.00;5298120;26;20042;-88
2024/04/15 10:41:40;;;;;;;;;;;;;;;16.52;62.64;97922.84;5324346;26;19931;-86
2024/04/15 10:44:06;;;;;;;;;;;;;;;16.50;63.49;97923.78;5297653;26;19938;-88
2024/04/15 10:46:32;;;;;;;;;;;;;;;15.93;64.81;97932.19;5339857;26;19938;-89
2024/04/15 10:48:58;;;;;;;;;;;;;;;16.07;64.84;97932.13;5317888;26;20000;-89
2024/04/15 10:51:24;;;;;;;;;;;;;;;15.85;66.12;97931.31;5376814;26;19934;-88
2024/04/15 10:53:49;;;;;;;;;;;;;;;15.84;66.41;97930.44;5292041;26;19930;-89
2024/04/15 10:56:15;;;;;;;;;;;;;;;15.70;67.30;97929.59;5382597;26;19937;-88
2024/04/15 10:58:42;;;;;;;;;;;;;;;15.72;65.43;97921.53;5300926;26;19937;-89
2024/04/15 11:01:12;;;;;;;;;;;;;;;16.09;64.22;97911.47;5328389;26;19930;-91
2024/04/15 11:03:41;;;;;;;;;;;;;;;16.04;65.28;97919.56;5372853;26;20344;-91
2024/04/15 11:06:06;;;;;;;;;;;;;;;16.11;65.13;97915.94;5308054;26;19945;-88
2024/04/15 11:08:32;;;;;;;;;;;;;;;15.97;65.92;97907.06;5293554;26;19930;-90
2024/04/15 11:10:57;;;;;;;;;;;;;;;16.13;65.31;97900.66;5367741;26;19930;-89
2024/04/15 11:13:23;;;;;;;;;;;;;;;16.70;64.54;97891.28;5341801;26;19939;-88
2024/04/15 11:15:51;;;;;;;;;;;;;;;16.95;63.09;97889.28;5327088;26;20252;-90
2024/04/15 11:18:19;;;;;;;;;;;;;;;16.42;64.28;97878.94;5329697;26;19954;-89
2024/04/15 11:20:45;;;;;;;;;;;;;;;16.46;65.10;97865.47;5331621;26;19936;-90
2024/04/15 11:23:10;;;;;;;;;;;;;;;16.97;63.62;97865.94;5361479;26;19942;-89
2024/04/15 11:25:36;;;;;;;;;;;;;;;16.95;62.07;97849.75;5328936;26;19938;-90
2024/04/15 11:28:03;;;;;;;;;;;;;;;16.91;61.82;97839.91;5371334;26;19939;-90
2024/04/15 11:30:29;;;;;;;;;;;;;;;17.31;60.88;97820.63;5290274;26;19937;-91
2024/04/15 11:32:58;;;;;;;;;;;;;;;17.21;60.39;97824.34;5370563;26;19942;-89
2024/04/15 11:35:23;;;;;;;;;;;;;;;17.35;60.10;97811.59;5320935;26;20454;-89
2024/04/15 11:37:52;;;;;;;;;;;;;;;17.42;59.48;97802.50;5336576;26;20136;-88
2024/04/15 11:40:18;;;;;;;;;;;;;;;17.55;58.37;97796.03;5322775;26;19930;-88
2024/04/15 11:42:43;;;;;;;;;;;;;;;17.25;60.16;97793.72;5298530;26;19937;-88
2024/04/15 11:45:14;;;;;;;;;;;;;;;17.80;59.26;97782.22;5319900;26;19953;-88
2024/04/15 11:47:39;;;;;;;;;;;;;;;17.48;58.57;97780.81;5318026;26;19980;-90
2024/04/15 11:50:05;;;;;;;;;;;;;;;17.58;59.27;97778.91;5318682;26;19934;-88
2024/04/15 11:52:31;;;;;;;;;;;;;;;18.24;56.51;97772.53;5323732;26;19934;-87
2024/04/15 11:54:57;;;;;;;;;;;;;;;18.44;54.43;97764.97;5370950;26;19938;-89
2024/04/15 11:57:22;;;;;;;;;;;;;;;17.32;57.70;97766.66;5308881;26;19938;-88
2024/04/15 11:59:47;;;;;;;;;;;;;;;16.89;57.92;97750.13;5372975;26;20061;-88
2024/04/15 12:02:13;;;;;;;;;;;;;;;16.45;59.56;97754.19;5354645;26;19999;-90
2024/04/15 12:04:49;;;;;;;;;;;;;;;16.36;61.42;97747.06;5368427;26;20261;-87
2024/04/15 12:07:16;;;;;;;;;;;;;;;16.29;62.28;97737.28;5287670;26;19939;-88
2024/04/15 12:09:41;;;;;;;;;;;;;;;16.11;61.33;97740.16;5285915;26;19942;-86
2024/04/15 12:12:06;;;;;;;;;;;;;;;15.95;60.78;97733.09;5359772;26;20228;-88
2024/04/15 12:14:32;;;;;;;;;;;;;;;15.69;62.14;97736.88;5315902;26;20386;-88
2024/04/15 12:16:57;;;;;;;;;;;;;;;15.72;61.71;97726.13;5292314;26;19963;-89
2024/04/15 12:19:23;;;;;;;;;;;;;;;16.06;61.29;97710.59;5286821;26;19998;-88
2024/04/15 12:21:50;;;;;;;;;;;;;;;16.00;62.15;97710.66;5325417;26;19930;-87
2024/04/15 12:24:16;;;;;;;;;;;;;;;16.00;60.50;97709.72;5374898;26;19930;-87
2024/04/15 12:53:51;;;;;;;0.10;0.10;;;;;;;18.25;55.46;97615.00;6485300;21;1249065;-93
2024/04/15 12:56:17;;;;;;;0.10;0.10;;;;;;;17.91;57.01;97602.13;6536973;22;20001;-94
2024/04/15 12:58:43;;;;;;;0.20;0.20;;;;;;;17.83;57.33;97601.41;6484124;22;20049;-92
2024/04/15 13:01:09;;;;;;;0.20;0.20;;;;;;;18.73;54.97;97580.72;6490982;22;20005;-94